Terminal Aerodrome Forecast
Issued by NWS Rapid City, SD

Home | Current Version | Previous Version | Text Only | Print | Product List | Glossary On
Versions: 1 2 3 4 5 6 7 8 9 10 11 12 13 14 15 16 17 18
275
FTUS43 KUNR 241127
TAFRAP
TAF
KRAP 241127Z 2412/2512 15007KT P6SM SKC
     FM241500 17016G23KT P6SM SCT080
     FM250000 15012KT P6SM VCSH SCT080
     FM250400 34015KT P6SM BKN070=

USA.gov is the U.S. government's official web portal to all federal, state and local government web resources and services.